sensor_id;sensor_type;location;lat;lon;timestamp;temperature;humidity
58865;DHT22;45702;52.982;6.658;2022-08-19T00:00:16;15.90;99.90
58865;DHT22;45702;52.982;6.658;2022-08-19T00:02:43;15.90;99.90
58865;DHT22;45702;52.982;6.658;2022-08-19T00:05:10;15.90;99.90
58865;DHT22;45702;52.982;6.658;2022-08-19T00:07:36;15.80;99.90
58865;DHT22;45702;52.982;6.658;2022-08-19T00:10:05;15.90;99.90
58865;DHT22;45702;52.982;6.658;2022-08-19T00:12:31;15.80;99.90
58865;DHT22;45702;52.982;6.658;2022-08-19T00:14:56;15.80;99.90
58865;DHT22;45702;52.982;6.658;2022-08-19T00:17:22;15.80;99.90
58865;DHT22;45702;52.982;6.658;2022-08-19T00:19:48;15.80;99.90
58865;DHT22;45702;52.982;6.658;2022-08-19T00:22:13;15.70;99.90
58865;DHT22;45702;52.982;6.658;2022-08-19T00:24:40;15.70;99.90
58865;DHT22;45702;52.982;6.658;2022-08-19T00:27:07;15.70;99.90
58865;DHT22;45702;52.982;6.658;2022-08-19T00:29:32;15.70;99.90
58865;DHT22;45702;52.982;6.658;2022-08-19T00:31:58;15.60;99.90
58865;DHT22;45702;52.982;6.658;2022-08-19T00:34:25;15.60;99.90
58865;DHT22;45702;52.982;6.658;2022-08-19T00:36:54;15.60;99.90
58865;DHT22;45702;52.982;6.658;2022-08-19T00:39:20;15.60;99.90
58865;DHT22;45702;52.982;6.658;2022-08-19T00:41:47;15.60;99.90
58865;DHT22;45702;52.982;6.658;2022-08-19T00:44:18;15.50;99.90
58865;DHT22;45702;52.982;6.658;2022-08-19T00:46:47;15.50;99.90
58865;DHT22;45702;52.982;6.658;2022-08-19T00:49:26;15.40;99.90
58865;DHT22;45702;52.982;6.658;2022-08-19T00:52:01;15.40;99.90
58865;DHT22;45702;52.982;6.658;2022-08-19T00:54:29;15.30;99.90
58865;DHT22;45702;52.982;6.658;2022-08-19T00:56:57;15.30;99.90
58865;DHT22;45702;52.982;6.658;2022-08-19T00:59:23;15.30;99.90
58865;DHT22;45702;52.982;6.658;2022-08-19T01:01:50;15.20;99.90
58865;DHT22;45702;52.982;6.658;2022-08-19T01:04:16;15.20;99.90
58865;DHT22;45702;52.982;6.658;2022-08-19T01:06:42;15.20;99.90
58865;DHT22;45702;52.982;6.658;2022-08-19T01:09:08;15.20;99.90
58865;DHT22;45702;52.982;6.658;2022-08-19T01:11:37;15.10;99.90
58865;DHT22;45702;52.982;6.658;2022-08-19T01:14:05;15.10;99.90
58865;DHT22;45702;52.982;6.658;2022-08-19T01:16:32;15.10;99.90
58865;DHT22;45702;52.982;6.658;2022-08-19T01:18:58;15.10;99.90
58865;DHT22;45702;52.982;6.658;2022-08-19T01:21:32;15.10;99.90
58865;DHT22;45702;52.982;6.658;2022-08-19T01:23:59;15.10;99.90
58865;DHT22;45702;52.982;6.658;2022-08-19T01:26:26;15.10;99.90
58865;DHT22;45702;52.982;6.658;2022-08-19T01:28:55;15.10;99.90
58865;DHT22;45702;52.982;6.658;2022-08-19T01:31:26;15.10;99.90
58865;DHT22;45702;52.982;6.658;2022-08-19T01:33:53;15.00;99.90
58865;DHT22;45702;52.982;6.658;2022-08-19T01:36:35;15.00;99.90
58865;DHT22;45702;52.982;6.658;2022-08-19T01:39:06;15.00;99.90
58865;DHT22;45702;52.982;6.658;2022-08-19T01:41:33;14.90;99.90
58865;DHT22;45702;52.982;6.658;2022-08-19T01:43:59;14.90;99.90
58865;DHT22;45702;52.982;6.658;2022-08-19T01:46:26;14.90;99.90
58865;DHT22;45702;52.982;6.658;2022-08-19T01:48:52;14.80;99.90
58865;DHT22;45702;52.982;6.658;2022-08-19T01:51:17;14.80;99.90
58865;DHT22;45702;52.982;6.658;2022-08-19T01:53:47;14.80;99.90
58865;DHT22;45702;52.982;6.658;2022-08-19T01:56:13;14.80;99.90
58865;DHT22;45702;52.982;6.658;2022-08-19T01:58:41;14.80;99.90
58865;DHT22;45702;52.982;6.658;2022-08-19T02:01:11;14.70;99.90
58865;DHT22;45702;52.982;6.658;2022-08-19T02:03:38;14.80;99.90
58865;DHT22;45702;52.982;6.658;2022-08-19T02:06:04;14.70;99.90
58865;DHT22;45702;52.982;6.658;2022-08-19T02:08:32;14.70;99.90
58865;DHT22;45702;52.982;6.658;2022-08-19T02:10:58;14.80;99.90
58865;DHT22;45702;52.982;6.658;2022-08-19T02:13:25;14.80;99.90
58865;DHT22;45702;52.982;6.658;2022-08-19T02:15:51;14.70;99.90
58865;DHT22;45702;52.982;6.658;2022-08-19T02:18:17;14.70;99.90
58865;DHT22;45702;52.982;6.658;2022-08-19T02:20:44;14.70;99.90
58865;DHT22;45702;52.982;6.658;2022-08-19T02:23:11;14.70;99.90
58865;DHT22;45702;52.982;6.658;2022-08-19T02:25:37;14.70;99.90
58865;DHT22;45702;52.982;6.658;2022-08-19T02:28:04;14.70;99.90
58865;DHT22;45702;52.982;6.658;2022-08-19T02:30:30;14.60;99.90
58865;DHT22;45702;52.982;6.658;2022-08-19T02:32:56;14.60;99.90
58865;DHT22;45702;52.982;6.658;2022-08-19T02:35:22;14.60;99.90
58865;DHT22;45702;52.982;6.658;2022-08-19T02:37:48;14.60;99.90
58865;DHT22;45702;52.982;6.658;2022-08-19T02:40:33;14.60;99.90
58865;DHT22;45702;52.982;6.658;2022-08-19T02:43:00;14.60;99.90
58865;DHT22;45702;52.982;6.658;2022-08-19T02:45:31;14.50;99.90
58865;DHT22;45702;52.982;6.658;2022-08-19T02:47:56;14.50;99.90
58865;DHT22;45702;52.982;6.658;2022-08-19T02:50:22;14.50;99.90
58865;DHT22;45702;52.982;6.658;2022-08-19T02:52:48;14.40;99.90
58865;DHT22;45702;52.982;6.658;2022-08-19T02:55:14;14.40;99.90
58865;DHT22;45702;52.982;6.658;2022-08-19T02:57:40;14.40;99.90
58865;DHT22;45702;52.982;6.658;2022-08-19T03:00:08;14.40;99.90
58865;DHT22;45702;52.982;6.658;2022-08-19T03:02:37;14.40;99.90
58865;DHT22;45702;52.982;6.658;2022-08-19T03:05:04;14.40;99.90
58865;DHT22;45702;52.982;6.658;2022-08-19T03:07:30;14.40;99.90
58865;DHT22;45702;52.982;6.658;2022-08-19T03:09:56;14.40;99.90
58865;DHT22;45702;52.982;6.658;2022-08-19T03:12:21;14.40;99.90
58865;DHT22;45702;52.982;6.658;2022-08-19T03:14:47;14.40;99.90
58865;DHT22;45702;52.982;6.658;2022-08-19T03:17:13;14.40;99.90
58865;DHT22;45702;52.982;6.658;2022-08-19T03:19:39;14.40;99.90
58865;DHT22;45702;52.982;6.658;2022-08-19T03:22:04;14.40;99.90
58865;DHT22;45702;52.982;6.658;2022-08-19T03:24:31;14.30;99.90
58865;DHT22;45702;52.982;6.658;2022-08-19T03:26:56;14.30;99.90
58865;DHT22;45702;52.982;6.658;2022-08-19T03:29:25;14.30;99.90
58865;DHT22;45702;52.982;6.658;2022-08-19T03:31:51;14.30;99.90
58865;DHT22;45702;52.982;6.658;2022-08-19T03:34:25;14.30;99.90
58865;DHT22;45702;52.982;6.658;2022-08-19T03:36:53;14.20;99.90
58865;DHT22;45702;52.982;6.658;2022-08-19T03:39:19;14.20;99.90
58865;DHT22;45702;52.982;6.658;2022-08-19T03:41:47;14.20;99.90
58865;DHT22;45702;52.982;6.658;2022-08-19T03:44:14;14.20;99.90
58865;DHT22;45702;52.982;6.658;2022-08-19T03:46:40;14.20;99.90
58865;DHT22;45702;52.982;6.658;2022-08-19T03:49:07;14.20;99.90
58865;DHT22;45702;52.982;6.658;2022-08-19T03:51:37;14.10;99.90
58865;DHT22;45702;52.982;6.658;2022-08-19T03:54:05;14.20;99.90
58865;DHT22;45702;52.982;6.658;2022-08-19T03:56:32;14.10;99.90
58865;DHT22;45702;52.982;6.658;2022-08-19T03:59:00;14.10;99.90
58865;DHT22;45702;52.982;6.658;2022-08-19T04:01:28;14.10;99.90
58865;DHT22;45702;52.982;6.658;2022-08-19T04:03:56;14.10;99.90
58865;DHT22;45702;52.982;6.658;2022-08-19T04:06:26;14.10;99.90
58865;DHT22;45702;52.982;6.658;2022-08-19T04:08:54;14.10;99.90
58865;DHT22;45702;52.982;6.658;2022-08-19T04:11:23;14.10;99.90
58865;DHT22;45702;52.982;6.658;2022-08-19T04:13:50;14.10;99.90
58865;DHT22;45702;52.982;6.658;2022-08-19T04:16:20;14.10;99.90
58865;DHT22;45702;52.982;6.658;2022-08-19T04:18:47;14.10;99.90
58865;DHT22;45702;52.982;6.658;2022-08-19T04:21:19;14.10;99.90
58865;DHT22;45702;52.982;6.658;2022-08-19T04:23:45;14.10;99.90
58865;DHT22;45702;52.982;6.658;2022-08-19T04:26:26;14.00;99.90
58865;DHT22;45702;52.982;6.658;2022-08-19T04:28:53;14.00;99.90
58865;DHT22;45702;52.982;6.658;2022-08-19T04:31:24;14.00;99.90
58865;DHT22;45702;52.982;6.658;2022-08-19T04:33:56;14.00;99.90
58865;DHT22;45702;52.982;6.658;2022-08-19T04:36:29;13.90;99.90
58865;DHT22;45702;52.982;6.658;2022-08-19T04:38:56;13.90;99.90
58865;DHT22;45702;52.982;6.658;2022-08-19T04:41:22;13.90;99.90
58865;DHT22;45702;52.982;6.658;2022-08-19T04:44:07;13.90;99.90
58865;DHT22;45702;52.982;6.658;2022-08-19T04:46:33;13.90;99.90
58865;DHT22;45702;52.982;6.658;2022-08-19T04:49:00;13.90;99.90
58865;DHT22;45702;52.982;6.658;2022-08-19T04:51:26;13.90;99.90
58865;DHT22;45702;52.982;6.658;2022-08-19T04:53:53;13.90;99.90
58865;DHT22;45702;52.982;6.658;2022-08-19T04:56:22;13.90;99.90
58865;DHT22;45702;52.982;6.658;2022-08-19T04:58:48;13.90;99.90
58865;DHT22;45702;52.982;6.658;2022-08-19T05:01:25;13.90;99.90
58865;DHT22;45702;52.982;6.658;2022-08-19T05:03:52;13.90;99.90
58865;DHT22;45702;52.982;6.658;2022-08-19T05:06:20;14.00;99.90
58865;DHT22;45702;52.982;6.658;2022-08-19T05:08:47;14.00;99.90
58865;DHT22;45702;52.982;6.658;2022-08-19T05:11:21;13.90;99.90
58865;DHT22;45702;52.982;6.658;2022-08-19T05:13:47;13.90;99.90
58865;DHT22;45702;52.982;6.658;2022-08-19T05:16:16;14.00;99.90
58865;DHT22;45702;52.982;6.658;2022-08-19T05:18:43;14.00;99.90
58865;DHT22;45702;52.982;6.658;2022-08-19T05:21:27;14.00;99.90
58865;DHT22;45702;52.982;6.658;2022-08-19T05:24:12;14.10;99.90
58865;DHT22;45702;52.982;6.658;2022-08-19T05:26:42;14.20;99.90
58865;DHT22;45702;52.982;6.658;2022-08-19T05:29:09;14.20;99.90
58865;DHT22;45702;52.982;6.658;2022-08-19T05:31:36;14.30;99.90
58865;DHT22;45702;52.982;6.658;2022-08-19T05:34:04;14.40;99.90
58865;DHT22;45702;52.982;6.658;2022-08-19T05:36:36;14.50;99.90
58865;DHT22;45702;52.982;6.658;2022-08-19T05:39:06;14.60;99.90
58865;DHT22;45702;52.982;6.658;2022-08-19T05:41:32;14.70;99.90
58865;DHT22;45702;52.982;6.658;2022-08-19T05:44:01;14.80;99.90
58865;DHT22;45702;52.982;6.658;2022-08-19T05:46:28;14.80;99.90
58865;DHT22;45702;52.982;6.658;2022-08-19T05:48:54;14.90;99.90
58865;DHT22;45702;52.982;6.658;2022-08-19T05:51:22;15.00;99.90
58865;DHT22;45702;52.982;6.658;2022-08-19T05:53:49;15.00;99.90
58865;DHT22;45702;52.982;6.658;2022-08-19T05:56:16;15.20;99.90
58865;DHT22;45702;52.982;6.658;2022-08-19T05:58:44;15.20;99.90
58865;DHT22;45702;52.982;6.658;2022-08-19T06:01:14;15.30;99.90
58865;DHT22;45702;52.982;6.658;2022-08-19T06:03:40;15.40;99.90
58865;DHT22;45702;52.982;6.658;2022-08-19T06:06:08;15.50;99.90
58865;DHT22;45702;52.982;6.658;2022-08-19T06:08:35;15.50;99.90
58865;DHT22;45702;52.982;6.658;2022-08-19T06:11:21;15.60;99.90
58865;DHT22;45702;52.982;6.658;2022-08-19T06:13:51;15.60;99.90
58865;DHT22;45702;52.982;6.658;2022-08-19T06:16:22;15.70;99.90
58865;DHT22;45702;52.982;6.658;2022-08-19T06:18:52;15.80;99.90
58865;DHT22;45702;52.982;6.658;2022-08-19T06:21:23;15.90;99.90
58865;DHT22;45702;52.982;6.658;2022-08-19T06:23:50;16.00;99.90
58865;DHT22;45702;52.982;6.658;2022-08-19T06:26:18;16.10;99.90
58865;DHT22;45702;52.982;6.658;2022-08-19T06:28:45;16.20;99.90
58865;DHT22;45702;52.982;6.658;2022-08-19T06:31:15;16.20;99.90
58865;DHT22;45702;52.982;6.658;2022-08-19T06:33:44;16.40;99.90
58865;DHT22;45702;52.982;6.658;2022-08-19T06:38:46;16.60;99.90
58865;DHT22;45702;52.982;6.658;2022-08-19T06:41:11;16.70;99.90
58865;DHT22;45702;52.982;6.658;2022-08-19T06:43:37;16.80;99.90
58865;DHT22;45702;52.982;6.658;2022-08-19T06:46:03;16.90;99.90
58865;DHT22;45702;52.982;6.658;2022-08-19T06:48:29;17.00;99.90
58865;DHT22;45702;52.982;6.658;2022-08-19T06:50:55;17.10;99.90
58865;DHT22;45702;52.982;6.658;2022-08-19T06:53:21;17.20;99.90
58865;DHT22;45702;52.982;6.658;2022-08-19T06:55:47;17.30;99.90
58865;DHT22;45702;52.982;6.658;2022-08-19T06:58:13;17.40;99.90
58865;DHT22;45702;52.982;6.658;2022-08-19T07:00:39;17.50;99.90
58865;DHT22;45702;52.982;6.658;2022-08-19T07:03:05;17.60;99.90
58865;DHT22;45702;52.982;6.658;2022-08-19T07:05:31;17.70;99.90
58865;DHT22;45702;52.982;6.658;2022-08-19T07:07:56;17.80;99.90
58865;DHT22;45702;52.982;6.658;2022-08-19T07:10:22;17.90;99.90
58865;DHT22;45702;52.982;6.658;2022-08-19T07:12:48;18.00;99.90
58865;DHT22;45702;52.982;6.658;2022-08-19T07:15:15;18.20;99.90
58865;DHT22;45702;52.982;6.658;2022-08-19T07:17:42;18.30;99.90
58865;DHT22;45702;52.982;6.658;2022-08-19T07:20:10;18.40;99.90
58865;DHT22;45702;52.982;6.658;2022-08-19T07:22:39;18.50;99.90
58865;DHT22;45702;52.982;6.658;2022-08-19T07:25:06;18.60;99.90
58865;DHT22;45702;52.982;6.658;2022-08-19T07:27:32;18.70;99.90
58865;DHT22;45702;52.982;6.658;2022-08-19T07:29:59;18.90;99.90
58865;DHT22;45702;52.982;6.658;2022-08-19T07:32:25;19.00;99.90
58865;DHT22;45702;52.982;6.658;2022-08-19T07:34:54;19.00;99.90
58865;DHT22;45702;52.982;6.658;2022-08-19T07:37:19;19.10;99.90
58865;DHT22;45702;52.982;6.658;2022-08-19T07:39:45;19.20;99.90
58865;DHT22;45702;52.982;6.658;2022-08-19T07:42:11;19.30;99.90
58865;DHT22;45702;52.982;6.658;2022-08-19T07:44:37;19.50;99.90
58865;DHT22;45702;52.982;6.658;2022-08-19T07:47:04;19.50;99.90
58865;DHT22;45702;52.982;6.658;2022-08-19T07:49:30;19.70;99.90
58865;DHT22;45702;52.982;6.658;2022-08-19T07:51:59;19.70;99.90
58865;DHT22;45702;52.982;6.658;2022-08-19T07:54:27;19.80;99.90
58865;DHT22;45702;52.982;6.658;2022-08-19T07:56:53;19.90;99.90
58865;DHT22;45702;52.982;6.658;2022-08-19T07:59:20;20.00;99.90
58865;DHT22;45702;52.982;6.658;2022-08-19T08:01:46;20.20;99.90
58865;DHT22;45702;52.982;6.658;2022-08-19T08:04:13;20.30;99.90
58865;DHT22;45702;52.982;6.658;2022-08-19T08:06:58;20.40;99.90
58865;DHT22;45702;52.982;6.658;2022-08-19T08:09:43;20.50;99.90
58865;DHT22;45702;52.982;6.658;2022-08-19T08:12:18;20.60;99.90
58865;DHT22;45702;52.982;6.658;2022-08-19T08:14:51;20.70;99.90
58865;DHT22;45702;52.982;6.658;2022-08-19T08:17:22;20.80;99.90
58865;DHT22;45702;52.982;6.658;2022-08-19T08:19:48;20.90;99.90
58865;DHT22;45702;52.982;6.658;2022-08-19T08:22:18;21.00;99.90
58865;DHT22;45702;52.982;6.658;2022-08-19T08:25:12;21.20;99.90
58865;DHT22;45702;52.982;6.658;2022-08-19T08:27:41;21.30;99.90
58865;DHT22;45702;52.982;6.658;2022-08-19T08:30:13;21.40;99.90
58865;DHT22;45702;52.982;6.658;2022-08-19T08:32:40;21.50;99.90
58865;DHT22;45702;52.982;6.658;2022-08-19T08:35:10;21.60;99.60
58865;DHT22;45702;52.982;6.658;2022-08-19T08:37:36;21.70;99.20
58865;DHT22;45702;52.982;6.658;2022-08-19T08:46:26;22.20;97.90
58865;DHT22;45702;52.982;6.658;2022-08-19T08:52:15;22.40;96.40
58865;DHT22;45702;52.982;6.658;2022-08-19T08:54:44;22.50;95.80
58865;DHT22;45702;52.982;6.658;2022-08-19T08:57:20;22.60;94.90
58865;DHT22;45702;52.982;6.658;2022-08-19T08:59:48;22.60;94.20
58865;DHT22;45702;52.982;6.658;2022-08-19T09:02:18;22.70;93.60
58865;DHT22;45702;52.982;6.658;2022-08-19T09:04:44;22.70;93.30
58865;DHT22;45702;52.982;6.658;2022-08-19T09:07:25;22.80;93.10
58865;DHT22;45702;52.982;6.658;2022-08-19T09:10:04;22.90;93.00
58865;DHT22;45702;52.982;6.658;2022-08-19T09:15:29;23.20;92.30
58865;DHT22;45702;52.982;6.658;2022-08-19T09:18:00;23.30;92.20
58865;DHT22;45702;52.982;6.658;2022-08-19T09:20:27;23.40;92.10
58865;DHT22;45702;52.982;6.658;2022-08-19T09:22:52;23.60;91.60
58865;DHT22;45702;52.982;6.658;2022-08-19T09:25:20;23.60;91.30
58865;DHT22;45702;52.982;6.658;2022-08-19T09:27:52;23.80;91.20
58865;DHT22;45702;52.982;6.658;2022-08-19T09:30:23;23.90;89.40
58865;DHT22;45702;52.982;6.658;2022-08-19T09:32:50;23.90;89.80
58865;DHT22;45702;52.982;6.658;2022-08-19T09:35:18;24.00;90.00
58865;DHT22;45702;52.982;6.658;2022-08-19T09:37:44;24.10;91.20
58865;DHT22;45702;52.982;6.658;2022-08-19T09:40:11;24.30;90.00
58865;DHT22;45702;52.982;6.658;2022-08-19T09:42:37;24.50;88.10
58865;DHT22;45702;52.982;6.658;2022-08-19T09:45:02;24.50;87.30
58865;DHT22;45702;52.982;6.658;2022-08-19T09:47:29;24.70;87.70
58865;DHT22;45702;52.982;6.658;2022-08-19T09:49:54;24.70;86.60
58865;DHT22;45702;52.982;6.658;2022-08-19T09:52:20;24.80;85.70
58865;DHT22;45702;52.982;6.658;2022-08-19T09:54:46;24.90;84.40
58865;DHT22;45702;52.982;6.658;2022-08-19T09:57:12;24.80;84.00
58865;DHT22;45702;52.982;6.658;2022-08-19T09:59:39;24.80;82.70
58865;DHT22;45702;52.982;6.658;2022-08-19T10:02:05;24.70;82.00
58865;DHT22;45702;52.982;6.658;2022-08-19T10:04:31;24.70;83.60
58865;DHT22;45702;52.982;6.658;2022-08-19T10:07:15;24.80;84.00
58865;DHT22;45702;52.982;6.658;2022-08-19T10:09:41;24.80;84.10
58865;DHT22;45702;52.982;6.658;2022-08-19T10:12:07;24.90;83.40
58865;DHT22;45702;52.982;6.658;2022-08-19T10:14:34;24.90;82.50
58865;DHT22;45702;52.982;6.658;2022-08-19T10:17:01;25.10;81.20
58865;DHT22;45702;52.982;6.658;2022-08-19T10:19:27;25.20;81.40
58865;DHT22;45702;52.982;6.658;2022-08-19T10:21:58;25.40;82.50
58865;DHT22;45702;52.982;6.658;2022-08-19T10:24:23;25.50;81.10
58865;DHT22;45702;52.982;6.658;2022-08-19T10:26:51;25.50;80.70
58865;DHT22;45702;52.982;6.658;2022-08-19T10:29:16;25.40;80.00
58865;DHT22;45702;52.982;6.658;2022-08-19T10:31:42;25.50;80.40
58865;DHT22;45702;52.982;6.658;2022-08-19T10:34:08;25.60;81.10
58865;DHT22;45702;52.982;6.658;2022-08-19T10:36:36;25.70;80.00
58865;DHT22;45702;52.982;6.658;2022-08-19T10:39:08;25.70;78.40
58865;DHT22;45702;52.982;6.658;2022-08-19T10:41:36;25.70;79.60
58865;DHT22;45702;52.982;6.658;2022-08-19T10:44:05;25.70;79.10
58865;DHT22;45702;52.982;6.658;2022-08-19T10:46:35;25.70;77.90
58865;DHT22;45702;52.982;6.658;2022-08-19T10:49:02;25.70;76.80
58865;DHT22;45702;52.982;6.658;2022-08-19T10:51:29;25.60;76.90
58865;DHT22;45702;52.982;6.658;2022-08-19T10:54:13;25.50;77.20
58865;DHT22;45702;52.982;6.658;2022-08-19T10:56:39;25.40;77.20
58865;DHT22;45702;52.982;6.658;2022-08-19T10:59:28;25.40;77.30
58865;DHT22;45702;52.982;6.658;2022-08-19T11:02:00;25.30;77.30
58865;DHT22;45702;52.982;6.658;2022-08-19T11:04:26;25.40;76.80
58865;DHT22;45702;52.982;6.658;2022-08-19T11:06:52;25.50;76.40
58865;DHT22;45702;52.982;6.658;2022-08-19T11:09:20;25.60;75.00
58865;DHT22;45702;52.982;6.658;2022-08-19T11:11:46;25.70;74.80
58865;DHT22;45702;52.982;6.658;2022-08-19T11:14:15;26.00;72.90
58865;DHT22;45702;52.982;6.658;2022-08-19T11:16:41;26.10;71.40
58865;DHT22;45702;52.982;6.658;2022-08-19T11:19:09;26.20;70.50
58865;DHT22;45702;52.982;6.658;2022-08-19T11:21:44;26.30;70.80
58865;DHT22;45702;52.982;6.658;2022-08-19T11:24:19;26.30;70.70
58865;DHT22;45702;52.982;6.658;2022-08-19T11:26:46;26.20;69.80
58865;DHT22;45702;52.982;6.658;2022-08-19T11:29:13;26.40;69.80
58865;DHT22;45702;52.982;6.658;2022-08-19T11:31:45;26.50;70.10
58865;DHT22;45702;52.982;6.658;2022-08-19T11:34:18;26.60;70.30
58865;DHT22;45702;52.982;6.658;2022-08-19T11:36:45;26.80;70.00
58865;DHT22;45702;52.982;6.658;2022-08-19T11:39:13;26.90;68.60
58865;DHT22;45702;52.982;6.658;2022-08-19T11:41:39;26.90;67.30
58865;DHT22;45702;52.982;6.658;2022-08-19T11:44:05;27.10;66.80
58865;DHT22;45702;52.982;6.658;2022-08-19T11:46:34;27.10;65.90
58865;DHT22;45702;52.982;6.658;2022-08-19T11:49:01;27.20;65.60
58865;DHT22;45702;52.982;6.658;2022-08-19T11:51:29;27.30;64.70
58865;DHT22;45702;52.982;6.658;2022-08-19T11:53:56;27.40;63.80
58865;DHT22;45702;52.982;6.658;2022-08-19T11:56:23;27.60;62.10
58865;DHT22;45702;52.982;6.658;2022-08-19T11:58:49;27.60;61.10
58865;DHT22;45702;52.982;6.658;2022-08-19T12:01:18;27.50;62.60
58865;DHT22;45702;52.982;6.658;2022-08-19T12:03:45;27.50;63.10
58865;DHT22;45702;52.982;6.658;2022-08-19T12:06:15;27.50;62.00
58865;DHT22;45702;52.982;6.658;2022-08-19T12:08:42;27.50;61.30
58865;DHT22;45702;52.982;6.658;2022-08-19T12:11:09;27.50;61.80
58865;DHT22;45702;52.982;6.658;2022-08-19T12:13:36;27.50;62.20
58865;DHT22;45702;52.982;6.658;2022-08-19T12:16:14;27.50;62.80
58865;DHT22;45702;52.982;6.658;2022-08-19T12:18:41;27.30;63.80
58865;DHT22;45702;52.982;6.658;2022-08-19T12:21:09;27.10;65.30
58865;DHT22;45702;52.982;6.658;2022-08-19T12:23:36;27.00;66.50
58865;DHT22;45702;52.982;6.658;2022-08-19T12:26:03;26.90;67.00
58865;DHT22;45702;52.982;6.658;2022-08-19T12:28:30;26.80;67.10
58865;DHT22;45702;52.982;6.658;2022-08-19T12:30:56;26.70;67.60
58865;DHT22;45702;52.982;6.658;2022-08-19T12:33:22;26.60;67.80
58865;DHT22;45702;52.982;6.658;2022-08-19T12:35:50;26.60;68.00
58865;DHT22;45702;52.982;6.658;2022-08-19T12:38:17;26.60;67.20
58865;DHT22;45702;52.982;6.658;2022-08-19T12:40:46;26.60;65.40
58865;DHT22;45702;52.982;6.658;2022-08-19T12:43:12;26.50;65.20
58865;DHT22;45702;52.982;6.658;2022-08-19T12:45:39;26.50;64.60
58865;DHT22;45702;52.982;6.658;2022-08-19T12:48:05;26.50;65.20
58865;DHT22;45702;52.982;6.658;2022-08-19T12:50:31;26.50;64.80
58865;DHT22;45702;52.982;6.658;2022-08-19T12:52:57;26.60;64.60
58865;DHT22;45702;52.982;6.658;2022-08-19T12:55:23;26.60;65.40
58865;DHT22;45702;52.982;6.658;2022-08-19T12:57:50;26.70;65.40
58865;DHT22;45702;52.982;6.658;2022-08-19T13:00:18;26.70;63.60
58865;DHT22;45702;52.982;6.658;2022-08-19T13:02:50;26.80;63.00
58865;DHT22;45702;52.982;6.658;2022-08-19T13:05:19;27.00;61.90
58865;DHT22;45702;52.982;6.658;2022-08-19T13:07:46;27.10;61.80
58865;DHT22;45702;52.982;6.658;2022-08-19T13:10:16;27.20;62.50
58865;DHT22;45702;52.982;6.658;2022-08-19T13:12:42;27.30;62.40
58865;DHT22;45702;52.982;6.658;2022-08-19T13:15:09;27.30;62.40
58865;DHT22;45702;52.982;6.658;2022-08-19T13:17:35;27.30;60.90
58865;DHT22;45702;52.982;6.658;2022-08-19T13:20:02;27.30;60.90
58865;DHT22;45702;52.982;6.658;2022-08-19T13:22:29;27.40;59.70
58865;DHT22;45702;52.982;6.658;2022-08-19T13:24:54;27.50;59.30
58865;DHT22;45702;52.982;6.658;2022-08-19T13:27:20;27.50;57.90
58865;DHT22;45702;52.982;6.658;2022-08-19T13:29:46;27.60;57.50
58865;DHT22;45702;52.982;6.658;2022-08-19T13:32:30;27.70;56.90
58865;DHT22;45702;52.982;6.658;2022-08-19T13:35:16;27.70;57.40
58865;DHT22;45702;52.982;6.658;2022-08-19T13:37:42;27.70;55.70
58865;DHT22;45702;52.982;6.658;2022-08-19T13:40:11;27.70;56.50
58865;DHT22;45702;52.982;6.658;2022-08-19T13:42:40;27.70;57.00
58865;DHT22;45702;52.982;6.658;2022-08-19T13:45:07;27.70;57.00
58865;DHT22;45702;52.982;6.658;2022-08-19T13:47:34;27.70;56.80
58865;DHT22;45702;52.982;6.658;2022-08-19T13:50:02;27.60;57.10
58865;DHT22;45702;52.982;6.658;2022-08-19T13:52:28;27.60;57.20
58865;DHT22;45702;52.982;6.658;2022-08-19T13:54:54;27.50;57.30
58865;DHT22;45702;52.982;6.658;2022-08-19T13:57:20;27.40;57.50
58865;DHT22;45702;52.982;6.658;2022-08-19T13:59:46;27.30;60.30
58865;DHT22;45702;52.982;6.658;2022-08-19T14:02:12;27.10;64.20
58865;DHT22;45702;52.982;6.658;2022-08-19T14:04:37;26.90;68.00
58865;DHT22;45702;52.982;6.658;2022-08-19T14:07:03;26.70;70.10
58865;DHT22;45702;52.982;6.658;2022-08-19T14:09:30;26.50;71.50
58865;DHT22;45702;52.982;6.658;2022-08-19T14:11:55;26.30;72.90
58865;DHT22;45702;52.982;6.658;2022-08-19T14:14:21;26.10;74.00
58865;DHT22;45702;52.982;6.658;2022-08-19T14:16:47;25.90;75.00
58865;DHT22;45702;52.982;6.658;2022-08-19T14:19:13;25.70;76.20
58865;DHT22;45702;52.982;6.658;2022-08-19T14:21:39;25.50;77.10
58865;DHT22;45702;52.982;6.658;2022-08-19T14:24:07;25.40;77.90
58865;DHT22;45702;52.982;6.658;2022-08-19T14:26:32;25.30;78.70
58865;DHT22;45702;52.982;6.658;2022-08-19T14:28:58;25.20;79.30
58865;DHT22;45702;52.982;6.658;2022-08-19T14:31:24;25.10;80.00
58865;DHT22;45702;52.982;6.658;2022-08-19T14:33:52;25.10;81.00
58865;DHT22;45702;52.982;6.658;2022-08-19T14:36:19;25.00;81.80
58865;DHT22;45702;52.982;6.658;2022-08-19T14:38:45;24.90;82.00
58865;DHT22;45702;52.982;6.658;2022-08-19T14:41:18;25.10;82.40
58865;DHT22;45702;52.982;6.658;2022-08-19T14:43:49;25.10;82.30
58865;DHT22;45702;52.982;6.658;2022-08-19T14:46:18;25.30;82.40
58865;DHT22;45702;52.982;6.658;2022-08-19T14:48:46;25.30;82.00
58865;DHT22;45702;52.982;6.658;2022-08-19T14:51:12;25.50;81.90
58865;DHT22;45702;52.982;6.658;2022-08-19T14:53:38;25.60;80.60
58865;DHT22;45702;52.982;6.658;2022-08-19T14:56:11;25.60;80.60
58865;DHT22;45702;52.982;6.658;2022-08-19T14:58:38;25.50;80.20
58865;DHT22;45702;52.982;6.658;2022-08-19T15:01:05;25.40;80.30
58865;DHT22;45702;52.982;6.658;2022-08-19T15:03:31;25.30;80.70
58865;DHT22;45702;52.982;6.658;2022-08-19T15:06:01;25.30;81.40
58865;DHT22;45702;52.982;6.658;2022-08-19T15:08:29;25.30;81.80
58865;DHT22;45702;52.982;6.658;2022-08-19T15:10:56;25.20;81.80
58865;DHT22;45702;52.982;6.658;2022-08-19T15:13:22;25.10;83.00
58865;DHT22;45702;52.982;6.658;2022-08-19T15:15:49;25.10;82.60
58865;DHT22;45702;52.982;6.658;2022-08-19T15:18:17;25.10;82.60
58865;DHT22;45702;52.982;6.658;2022-08-19T15:20:43;25.30;82.90
58865;DHT22;45702;52.982;6.658;2022-08-19T15:23:09;25.40;82.70
58865;DHT22;45702;52.982;6.658;2022-08-19T15:25:36;25.80;81.60
58865;DHT22;45702;52.982;6.658;2022-08-19T15:28:02;26.10;79.50
58865;DHT22;45702;52.982;6.658;2022-08-19T15:30:28;26.50;77.60
58865;DHT22;45702;52.982;6.658;2022-08-19T15:32:56;26.90;75.00
58865;DHT22;45702;52.982;6.658;2022-08-19T15:35:23;27.40;74.00
58865;DHT22;45702;52.982;6.658;2022-08-19T15:37:51;27.80;72.30
58865;DHT22;45702;52.982;6.658;2022-08-19T15:40:18;28.30;72.10
58865;DHT22;45702;52.982;6.658;2022-08-19T15:42:45;28.70;69.10
58865;DHT22;45702;52.982;6.658;2022-08-19T15:45:13;28.50;69.40
58865;DHT22;45702;52.982;6.658;2022-08-19T15:47:39;28.00;69.30
58865;DHT22;45702;52.982;6.658;2022-08-19T15:52:31;27.70;70.20